Morganton, NC (28655)

12:26 AM EST on November 27, 2014 (GMT -0500)
Salem Community | Change Station
CLOSE
Current Station
Personal Weather Station
Location: Morganton, NC
Elevation: 1212 ft
Nearby Weather Stations

Elev 1212 ft 35.71 °N, 81.66 °W | Updated 12 seconds ago

Overcast
Overcast
41.2 °F
Feels Like 41 °F
N
0.0
Wind Variable Wind from WSW
Gusts 3.0 mph

Today
High -- | Low -- °F
--% Chance of Precip.
Yesterday
High -- | Low -- °F
Precip. -- in
7:14 AM 5:14 PM
Waxing Crescent, 26% visible
Pressure 30.04 in
Visibility 1.8 miles
Clouds Overcast 200 ft
Windchill 41 °F
Dew Point 40 °F
Humidity 97%
Rainfall 0.00 in
Snow Depth Not available.
UV 0 out of 12
Pollen .30 out of 12
Air Quality Not available.
Flu Activity Not available.
METAR KMRN 270515Z AUTO 00000KT 1 3/4SM BR OVC002 05/05 A3004 RMK AO2 T00500050

More Conditions Fewer Conditions

Pressure 30.04 in
Visibility 1.8 miles
Clouds Overcast 200 ft
Windchill 41 °F
Dew Point 40 °F
Humidity 97%
Rainfall 0.00 in
Snow Depth Not available.
UV 0 out of 12
Pollen .30 out of 12
Air Quality Not available.
Flu Activity Not available.
METAR KMRN 270515Z AUTO 00000KT 1 3/4SM BR OVC002 05/05 A3004 RMK AO2 T00500050

More Conditions Fewer Conditions

10-Day Weather Forecast

Almanac

Astronomy

Nov. 27, 2014 Rise Set
Actual Time
Civil Twilight
Nautical Twilight
Astronomical Twilight
Moon
Length of Visible Light
Length of Day
Tomorrow will be .
, % of the Moon is Illuminated

Today's Extremes

State Highs State Lows

Community

WunderPhotos

Upload Photos

1,773,960 photos uploaded!

WunderBlogs® & News

Nearby

Air Quality

  Air Quality AQ Index Pollutant
Not available.

Snow Depth

Station Depth Elevation

Earthquake Activity

City Distance Mag. Time & Date
Minimum magnitude displayed is 2.5.

Coastal Water Temperatures

Place Temperature

Nearby Weather Stations